createdAt,value
2023-11-12T00:00:03.411Z,8.00
2023-11-12T00:00:35.913Z,9.60
2023-11-12T00:01:08.431Z,11.21
2023-11-12T00:01:40.851Z,7.20
2023-11-12T00:02:13.324Z,10.41
2023-11-12T00:02:45.806Z,16.01
2023-11-12T00:03:18.284Z,10.40
2023-11-12T00:03:50.796Z,6.40
2023-11-12T00:04:23.224Z,5.60
2023-11-12T00:04:55.880Z,8.80
2023-11-12T00:05:28.312Z,9.60
2023-11-12T00:06:00.816Z,12.01
2023-11-12T00:06:33.302Z,9.60
2023-11-12T00:07:05.788Z,12.81
2023-11-12T00:07:38.370Z,10.40
2023-11-12T00:08:10.947Z,7.20
2023-11-12T00:08:43.369Z,14.41
2023-11-12T00:09:15.886Z,12.81
2023-11-12T00:09:48.334Z,9.60
2023-11-12T00:10:20.832Z,6.40
2023-11-12T00:10:53.357Z,4.00
2023-11-12T00:11:25.791Z,6.40
2023-11-12T00:11:58.321Z,11.21
2023-11-12T00:12:30.830Z,7.20
2023-11-12T00:13:03.359Z,10.41
2023-11-12T00:13:35.862Z,8.00
2023-11-12T00:14:08.427Z,8.80
2023-11-12T00:14:40.897Z,8.80
2023-11-12T00:15:13.394Z,7.20
2023-11-12T00:15:45.907Z,7.20
2023-11-12T00:16:18.393Z,12.80
2023-11-12T00:16:51.024Z,9.60
2023-11-12T00:17:23.532Z,8.00
2023-11-12T00:17:56.081Z,10.40
2023-11-12T00:18:28.565Z,10.40
2023-11-12T00:19:01.133Z,6.40
2023-11-12T00:19:33.599Z,8.00
2023-11-12T00:20:06.108Z,7.20
2023-11-12T00:20:38.641Z,8.00
2023-11-12T00:21:11.102Z,6.40
2023-11-12T00:21:43.607Z,1.60
2023-11-12T00:22:16.112Z,4.00
2023-11-12T00:22:48.663Z,7.20
2023-11-12T00:23:21.164Z,4.00
2023-11-12T00:23:53.724Z,5.60
2023-11-12T00:24:26.162Z,4.00
2023-11-12T00:24:58.630Z,9.60
2023-11-12T00:25:31.084Z,5.60
2023-11-12T00:26:03.621Z,0.00
2023-11-12T00:26:36.057Z,0.00
2023-11-12T00:27:08.537Z,0.00
2023-11-12T00:27:41.079Z,0.00
2023-11-12T00:28:13.710Z,0.00
2023-11-12T00:28:46.262Z,10.40
2023-11-12T00:29:18.818Z,12.01
2023-11-12T00:29:51.330Z,13.61
2023-11-12T00:30:23.842Z,8.00
2023-11-12T00:30:56.326Z,9.60
2023-11-12T00:31:28.818Z,6.40
2023-11-12T00:32:01.365Z,2.40
2023-11-12T00:32:33.899Z,4.80
2023-11-12T00:33:06.275Z,7.20
2023-11-12T00:33:40.145Z,7.20
2023-11-12T00:34:11.313Z,3.20
2023-11-12T00:34:43.838Z,6.41
2023-11-12T00:35:16.336Z,5.60
2023-11-12T00:35:48.785Z,9.60
2023-11-12T00:36:21.264Z,8.80
2023-11-12T00:36:53.748Z,8.00
2023-11-12T00:37:26.208Z,4.80
2023-11-12T00:37:58.786Z,12.01
2023-11-12T00:38:31.236Z,14.41
2023-11-12T00:39:04.457Z,8.00
2023-11-12T00:39:36.939Z,12.01
2023-11-12T00:40:09.409Z,11.21
2023-11-12T00:40:41.903Z,10.40
2023-11-12T00:41:14.336Z,9.60
2023-11-12T00:41:46.839Z,8.00
2023-11-12T00:42:19.298Z,13.61
2023-11-12T00:42:51.777Z,10.40
2023-11-12T00:43:24.277Z,7.20
2023-11-12T00:43:56.794Z,8.01
2023-11-12T00:44:29.306Z,0.00
2023-11-12T00:45:01.658Z,0.00
2023-11-12T00:45:34.176Z,0.00
2023-11-12T00:46:06.694Z,8.80
2023-11-12T00:46:39.150Z,9.60
2023-11-12T00:47:11.703Z,15.21
2023-11-12T00:47:44.214Z,7.20
2023-11-12T00:48:16.797Z,11.21
2023-11-12T00:48:49.239Z,7.20
2023-11-12T00:49:21.736Z,7.20
2023-11-12T00:49:54.245Z,8.80
2023-11-12T00:50:26.770Z,9.60
2023-11-12T00:50:59.225Z,9.60
2023-11-12T00:51:31.731Z,7.20
2023-11-12T00:52:05.437Z,4.80
2023-11-12T00:52:36.694Z,6.40
2023-11-12T00:53:09.205Z,4.80
2023-11-12T00:53:41.645Z,3.20
2023-11-12T00:54:14.126Z,5.60
2023-11-12T00:54:46.651Z,7.20
2023-11-12T00:55:19.150Z,7.20
2023-11-12T00:55:51.733Z,4.80
2023-11-12T00:56:24.235Z,5.60
2023-11-12T00:56:56.713Z,10.40
2023-11-12T00:57:29.214Z,10.40
2023-11-12T00:58:01.690Z,9.60
2023-11-12T00:58:34.163Z,12.01
2023-11-12T00:59:06.962Z,10.40
2023-11-12T00:59:39.149Z,8.00
2023-11-12T01:00:11.653Z,6.40
2023-11-12T01:00:44.094Z,4.00
2023-11-12T01:01:16.598Z,6.40
2023-11-12T01:01:49.085Z,8.00
2023-11-12T01:02:21.520Z,2.40
2023-11-12T01:02:54.079Z,0.00
2023-11-12T01:03:26.503Z,6.40
2023-11-12T01:03:59.003Z,6.40
2023-11-12T01:04:31.429Z,0.00
2023-11-12T01:05:03.993Z,0.00
2023-11-12T01:05:36.418Z,4.80
2023-11-12T01:06:08.905Z,2.40
2023-11-12T01:06:41.421Z,0.00
2023-11-12T01:07:13.917Z,0.00
2023-11-12T01:07:46.430Z,4.00
2023-11-12T01:08:19.025Z,2.40
2023-11-12T01:08:51.462Z,1.60
2023-11-12T01:09:23.939Z,0.00
2023-11-12T01:09:56.457Z,0.00
2023-11-12T01:10:28.935Z,0.00
2023-11-12T01:11:01.514Z,0.00
2023-11-12T01:11:34.003Z,0.00
2023-11-12T01:12:06.504Z,4.00
2023-11-12T01:12:39.013Z,5.60
2023-11-12T01:13:11.544Z,4.80
2023-11-12T01:13:44.095Z,3.20
2023-11-12T01:14:16.532Z,7.20
2023-11-12T01:14:49.072Z,5.60
2023-11-12T01:15:21.493Z,2.40
2023-11-12T01:15:53.996Z,6.40
2023-11-12T01:16:26.502Z,7.20
2023-11-12T01:16:58.992Z,4.00
2023-11-12T01:17:31.558Z,10.41
2023-11-12T01:18:04.116Z,14.41
2023-11-12T01:18:36.725Z,4.80
2023-11-12T01:19:09.076Z,8.00
2023-11-12T01:19:41.594Z,7.20
2023-11-12T01:20:14.734Z,5.60
2023-11-12T01:20:46.868Z,7.20
2023-11-12T01:21:19.375Z,5.60
2023-11-12T01:21:51.875Z,5.60
2023-11-12T01:22:24.378Z,10.40
2023-11-12T01:22:56.899Z,12.01
2023-11-12T01:23:29.384Z,8.80
2023-11-12T01:24:01.951Z,7.20
2023-11-12T01:24:34.413Z,12.01
2023-11-12T01:25:06.919Z,10.40
2023-11-12T01:25:39.451Z,8.00
2023-11-12T01:26:11.968Z,4.80
2023-11-12T01:26:44.465Z,3.20
2023-11-12T01:27:16.955Z,0.00
2023-11-12T01:27:49.452Z,0.00
2023-11-12T01:28:21.935Z,6.40
2023-11-12T01:28:54.415Z,8.00
2023-11-12T01:29:26.911Z,3.20
2023-11-12T01:29:59.483Z,0.00
2023-11-12T01:30:32.038Z,6.40
2023-11-12T01:31:04.544Z,5.60
2023-11-12T01:31:37.053Z,5.60
2023-11-12T01:32:09.558Z,4.00
2023-11-12T01:32:42.206Z,4.80
2023-11-12T01:33:14.680Z,6.40
2023-11-12T01:33:47.153Z,5.60
2023-11-12T01:34:19.661Z,5.60
2023-11-12T01:34:52.169Z,0.80
2023-11-12T01:35:24.662Z,2.40
2023-11-12T01:35:57.158Z,4.80
2023-11-12T01:36:29.743Z,7.20
2023-11-12T01:37:02.208Z,8.00
2023-11-12T01:37:34.692Z,4.80
2023-11-12T01:38:07.221Z,0.00
2023-11-12T01:38:39.752Z,0.00
2023-11-12T01:39:12.294Z,0.80
2023-11-12T01:39:44.743Z,6.40
2023-11-12T01:40:17.222Z,10.40
2023-11-12T01:40:49.667Z,13.61
2023-11-12T01:41:22.174Z,8.00
2023-11-12T01:41:54.652Z,12.01
2023-11-12T01:42:27.200Z,8.00
2023-11-12T01:42:59.657Z,7.20
2023-11-12T01:43:32.308Z,3.20
2023-11-12T01:44:04.693Z,0.00
2023-11-12T01:44:37.149Z,4.00
2023-11-12T01:45:09.642Z,4.80
2023-11-12T01:45:42.104Z,4.80
2023-11-12T01:46:14.583Z,4.80
2023-11-12T01:46:47.074Z,4.00
2023-11-12T01:47:19.622Z,0.00
2023-11-12T01:47:52.218Z,0.00
2023-11-12T01:48:24.622Z,0.00
2023-11-12T01:48:57.040Z,0.00
2023-11-12T01:49:29.498Z,0.00
2023-11-12T01:50:02.037Z,0.00
2023-11-12T01:50:34.540Z,0.00
2023-11-12T01:51:07.053Z,0.00
2023-11-12T01:51:39.523Z,0.00
2023-11-12T01:52:12.026Z,0.00
2023-11-12T01:52:44.480Z,0.00
2023-11-12T01:53:16.946Z,0.00
2023-11-12T01:53:49.417Z,0.00
2023-11-12T01:54:21.902Z,0.00
2023-11-12T01:54:54.388Z,0.00
2023-11-12T01:55:26.886Z,0.00
2023-11-12T01:55:59.420Z,0.00
2023-11-12T01:56:31.934Z,0.00
2023-11-12T01:57:04.443Z,0.00
2023-11-12T01:57:36.958Z,0.00
2023-11-12T01:58:09.398Z,0.00
2023-11-12T01:58:41.876Z,0.00
2023-11-12T01:59:14.376Z,0.00
2023-11-12T01:59:46.880Z,0.00
2023-11-12T02:00:19.471Z,0.00
2023-11-12T02:00:51.907Z,0.00
2023-11-12T02:01:24.557Z,0.00
2023-11-12T02:01:57.061Z,0.00
2023-11-12T02:02:29.518Z,0.00
2023-11-12T02:03:02.035Z,0.00
2023-11-12T02:03:34.681Z,0.00
2023-11-12T02:04:06.989Z,0.00
2023-11-12T02:04:39.449Z,0.00
2023-11-12T02:05:11.949Z,0.80
2023-11-12T02:05:44.463Z,0.00
2023-11-12T02:06:17.009Z,0.00
2023-11-12T02:06:49.426Z,0.00
2023-11-12T02:07:21.921Z,7.20
2023-11-12T02:07:54.448Z,8.00
2023-11-12T02:08:26.959Z,10.40
2023-11-12T02:08:59.454Z,7.20
2023-11-12T02:09:31.984Z,9.60
2023-11-12T02:10:04.463Z,7.20
2023-11-12T02:10:37.097Z,5.60
2023-11-12T02:11:09.486Z,0.80
2023-11-12T02:11:41.981Z,0.00
2023-11-12T02:12:14.692Z,0.00
2023-11-12T02:12:47.024Z,0.00
2023-11-12T02:13:19.556Z,0.00
2023-11-12T02:13:52.048Z,0.00
2023-11-12T02:14:24.565Z,0.00
2023-11-12T02:14:57.068Z,0.00
2023-11-12T02:15:29.552Z,0.00
2023-11-12T02:16:02.040Z,0.00
2023-11-12T02:16:34.588Z,0.00
2023-11-12T02:17:07.009Z,0.00
2023-11-12T02:17:39.545Z,0.00
2023-11-12T02:18:12.106Z,0.00
2023-11-12T02:18:44.578Z,11.21
2023-11-12T02:19:16.990Z,8.00
2023-11-12T02:19:49.509Z,6.41
2023-11-12T02:20:21.986Z,9.60
2023-11-12T02:20:54.504Z,8.80
2023-11-12T02:21:26.998Z,8.00
2023-11-12T02:21:59.482Z,8.80
2023-11-12T02:22:31.958Z,5.60
2023-11-12T02:23:04.461Z,8.00
2023-11-12T02:23:36.920Z,9.60
2023-11-12T02:24:09.425Z,8.80
2023-11-12T02:24:43.145Z,12.81
2023-11-12T02:25:14.663Z,12.01
2023-11-12T02:25:46.921Z,15.21
2023-11-12T02:26:19.376Z,5.60
2023-11-12T02:26:51.830Z,0.80
2023-11-12T02:27:24.368Z,0.00
2023-11-12T02:27:56.758Z,7.20
2023-11-12T02:28:29.259Z,8.00
2023-11-12T02:29:01.750Z,5.60
2023-11-12T02:29:34.254Z,12.01
2023-11-12T02:30:06.831Z,8.80
2023-11-12T02:30:39.354Z,6.40
2023-11-12T02:31:11.778Z,4.80
2023-11-12T02:31:44.246Z,4.80
2023-11-12T02:32:16.768Z,1.60
2023-11-12T02:32:49.343Z,12.01
2023-11-12T02:33:21.779Z,2.40
2023-11-12T02:33:54.281Z,0.00
2023-11-12T02:34:26.708Z,0.00
2023-11-12T02:34:59.261Z,4.00
2023-11-12T02:35:31.710Z,4.80
2023-11-12T02:36:04.217Z,6.40
2023-11-12T02:36:36.797Z,8.80
2023-11-12T02:37:09.218Z,10.40
2023-11-12T02:37:41.741Z,10.40
2023-11-12T02:38:14.326Z,7.21
2023-11-12T02:38:46.716Z,2.40
2023-11-12T02:39:19.209Z,0.00
2023-11-12T02:39:51.695Z,0.00
2023-11-12T02:40:24.170Z,0.00
2023-11-12T02:40:56.661Z,0.80
2023-11-12T02:41:29.137Z,0.00
2023-11-12T02:42:01.634Z,0.00
2023-11-12T02:42:34.260Z,0.00
2023-11-12T02:43:06.631Z,0.00
2023-11-12T02:43:39.091Z,0.00
2023-11-12T02:44:11.656Z,0.00
2023-11-12T02:44:44.158Z,0.00
2023-11-12T02:45:16.682Z,0.80
2023-11-12T02:45:49.372Z,5.60
2023-11-12T02:46:21.660Z,7.20
2023-11-12T02:46:54.128Z,9.60
2023-11-12T02:47:26.650Z,6.40
2023-11-12T02:47:59.173Z,5.60
2023-11-12T02:48:31.694Z,4.00
2023-11-12T02:49:04.162Z,5.60
2023-11-12T02:49:36.760Z,5.60
2023-11-12T02:50:09.264Z,4.00
2023-11-12T02:50:41.723Z,3.20
2023-11-12T02:51:14.267Z,0.80
2023-11-12T02:51:46.686Z,0.00
2023-11-12T02:52:19.163Z,0.00
2023-11-12T02:52:51.666Z,0.00
2023-11-12T02:53:24.134Z,0.00
2023-11-12T02:53:56.649Z,9.60
2023-11-12T02:54:29.224Z,5.60
2023-11-12T02:55:01.645Z,8.00
2023-11-12T02:55:34.149Z,6.40
2023-11-12T02:56:06.674Z,6.40
2023-11-12T02:56:39.152Z,7.20
2023-11-12T02:57:11.692Z,8.00
2023-11-12T02:57:44.108Z,10.40
2023-11-12T02:58:16.616Z,6.40
2023-11-12T02:58:49.084Z,8.00
2023-11-12T02:59:21.579Z,7.20
2023-11-12T02:59:54.056Z,6.40
2023-11-12T03:00:26.625Z,5.60
2023-11-12T03:00:59.151Z,8.00
2023-11-12T03:01:31.591Z,12.81
2023-11-12T03:02:04.951Z,14.41
2023-11-12T03:02:37.445Z,7.20
2023-11-12T03:03:10.002Z,7.20
2023-11-12T03:03:42.525Z,12.01
2023-11-12T03:04:15.003Z,14.41
2023-11-12T03:04:47.412Z,10.41
2023-11-12T03:05:19.923Z,12.01
2023-11-12T03:05:52.502Z,6.40
2023-11-12T03:06:25.035Z,6.40
2023-11-12T03:06:57.530Z,8.00
2023-11-12T03:07:30.043Z,0.80
2023-11-12T03:08:02.512Z,0.80
2023-11-12T03:08:34.991Z,0.00
2023-11-12T03:09:07.514Z,12.01
2023-11-12T03:09:40.067Z,13.60
2023-11-12T03:10:12.528Z,4.80
2023-11-12T03:10:45.012Z,11.21
2023-11-12T03:11:17.541Z,8.00
2023-11-12T03:11:50.057Z,8.00
2023-11-12T03:12:22.572Z,7.20
2023-11-12T03:12:55.417Z,7.20
2023-11-12T03:13:27.489Z,9.60
2023-11-12T03:13:59.996Z,10.40
2023-11-12T03:14:32.495Z,12.01
2023-11-12T03:15:04.977Z,8.80
2023-11-12T03:15:37.490Z,7.20
2023-11-12T03:16:09.911Z,10.40
2023-11-12T03:16:42.506Z,22.41
2023-11-12T03:17:14.970Z,6.40
2023-11-12T03:17:47.488Z,10.40
2023-11-12T03:18:20.017Z,8.00
2023-11-12T03:18:52.530Z,8.00
2023-11-12T03:19:25.014Z,12.80
2023-11-12T03:19:57.511Z,20.01
2023-11-12T03:20:30.016Z,12.01
2023-11-12T03:21:02.500Z,10.40
2023-11-12T03:21:35.064Z,11.21
2023-11-12T03:22:07.498Z,10.40
2023-11-12T03:22:39.976Z,11.21
2023-11-12T03:23:12.487Z,14.41
2023-11-12T03:23:44.984Z,13.61
2023-11-12T03:24:17.539Z,9.60
2023-11-12T03:24:50.032Z,14.41
2023-11-12T03:25:22.536Z,8.80
2023-11-12T03:25:55.008Z,5.60
2023-11-12T03:26:27.501Z,8.01
2023-11-12T03:26:59.994Z,12.01
2023-11-12T03:27:32.454Z,10.40
2023-11-12T03:28:04.934Z,16.81
2023-11-12T03:28:37.436Z,8.80
2023-11-12T03:29:09.936Z,6.40
2023-11-12T03:29:42.455Z,6.40
2023-11-12T03:30:15.025Z,10.40
2023-11-12T03:30:47.550Z,6.40
2023-11-12T03:31:19.993Z,19.21
2023-11-12T03:31:52.453Z,14.41
2023-11-12T03:32:24.959Z,8.80
2023-11-12T03:32:57.450Z,6.40
2023-11-12T03:33:29.930Z,7.20
2023-11-12T03:34:02.431Z,12.81
2023-11-12T03:34:34.936Z,8.80
2023-11-12T03:35:07.394Z,6.40
2023-11-12T03:35:39.844Z,7.20
2023-11-12T03:36:12.318Z,10.40
2023-11-12T03:36:44.785Z,7.20
2023-11-12T03:37:17.230Z,4.80
2023-11-12T03:37:49.710Z,4.80
2023-11-12T03:38:22.206Z,8.00
2023-11-12T03:38:54.738Z,8.81
2023-11-12T03:39:27.248Z,4.80
2023-11-12T03:39:59.704Z,5.60
2023-11-12T03:40:32.153Z,2.40
2023-11-12T03:41:04.612Z,8.00
2023-11-12T03:41:37.138Z,7.20
2023-11-12T03:42:09.643Z,8.00
2023-11-12T03:42:42.206Z,12.81
2023-11-12T03:43:14.644Z,8.00
2023-11-12T03:43:47.113Z,7.20
2023-11-12T03:44:19.619Z,5.60
2023-11-12T03:44:52.115Z,4.80
2023-11-12T03:45:24.559Z,7.20
2023-11-12T03:45:57.022Z,5.60
2023-11-12T03:46:29.509Z,1.60
2023-11-12T03:47:02.051Z,4.80
2023-11-12T03:47:34.634Z,8.80
2023-11-12T03:48:07.120Z,9.60
2023-11-12T03:48:39.595Z,7.20
2023-11-12T03:49:12.109Z,6.40
2023-11-12T03:49:44.609Z,8.00
2023-11-12T03:50:17.058Z,4.00
2023-11-12T03:50:49.495Z,0.00
2023-11-12T03:51:22.044Z,0.80
2023-11-12T03:51:54.503Z,0.00
2023-11-12T03:52:27.005Z,0.00
2023-11-12T03:52:59.482Z,7.20
2023-11-12T03:53:31.973Z,9.60
2023-11-12T03:54:04.478Z,12.81
2023-11-12T03:54:37.012Z,8.80
2023-11-12T03:55:09.446Z,10.40
2023-11-12T03:55:41.929Z,12.01
2023-11-12T03:56:14.467Z,9.60
2023-11-12T03:56:46.953Z,9.60
2023-11-12T03:57:19.468Z,5.60
2023-11-12T03:57:51.985Z,7.20
2023-11-12T03:58:24.473Z,8.00
2023-11-12T03:58:56.960Z,5.60
2023-11-12T03:59:29.517Z,8.80
2023-11-12T04:00:02.014Z,6.40
2023-11-12T04:00:34.543Z,8.80
2023-11-12T04:01:07.065Z,10.40
2023-11-12T04:01:39.519Z,7.20
2023-11-12T04:02:12.071Z,7.20
2023-11-12T04:02:44.692Z,4.80
2023-11-12T04:03:17.113Z,9.60
2023-11-12T04:03:49.615Z,9.60
2023-11-12T04:04:22.116Z,11.21
2023-11-12T04:04:54.624Z,9.60
2023-11-12T04:05:27.083Z,10.41
2023-11-12T04:05:59.536Z,7.20
2023-11-12T04:06:32.038Z,4.80
2023-11-12T04:07:04.570Z,2.40
2023-11-12T04:07:37.110Z,4.80
2023-11-12T04:08:09.605Z,7.20
2023-11-12T04:08:42.088Z,4.00
2023-11-12T04:09:14.582Z,7.20
2023-11-12T04:09:47.062Z,8.80
2023-11-12T04:10:19.554Z,6.41
2023-11-12T04:10:52.026Z,6.41
2023-11-12T04:11:24.528Z,8.80
2023-11-12T04:11:57.036Z,9.60
2023-11-12T04:12:29.524Z,9.60
2023-11-12T04:13:02.012Z,6.40
2023-11-12T04:13:34.504Z,6.40
2023-11-12T04:14:06.998Z,7.20
2023-11-12T04:14:39.553Z,7.20
2023-11-12T04:15:12.054Z,11.21
2023-11-12T04:15:44.686Z,8.00
2023-11-12T04:16:17.053Z,11.21
2023-11-12T04:16:49.507Z,9.60
2023-11-12T04:17:21.961Z,13.61
2023-11-12T04:17:54.474Z,8.00
2023-11-12T04:18:26.921Z,4.80
2023-11-12T04:18:59.384Z,13.61
2023-11-12T04:19:31.842Z,10.40
2023-11-12T04:20:04.372Z,0.00
2023-11-12T04:20:36.925Z,11.21
2023-11-12T04:21:09.487Z,4.80
2023-11-12T04:21:41.939Z,12.01
2023-11-12T04:22:14.385Z,6.40
2023-11-12T04:22:46.875Z,0.00
2023-11-12T04:23:19.374Z,0.00
2023-11-12T04:23:51.872Z,0.00
2023-11-12T04:24:24.354Z,0.80
2023-11-12T04:24:56.876Z,0.00
2023-11-12T04:25:29.338Z,0.00
2023-11-12T04:26:01.929Z,13.61
2023-11-12T04:26:34.349Z,12.01
2023-11-12T04:27:06.932Z,5.60
2023-11-12T04:27:39.465Z,5.60
2023-11-12T04:28:11.761Z,6.40
2023-11-12T04:28:44.230Z,4.80
2023-11-12T04:29:16.714Z,8.00
2023-11-12T04:29:49.329Z,11.21
2023-11-12T04:30:21.864Z,7.20
2023-11-12T04:30:54.316Z,10.40
2023-11-12T04:31:26.818Z,10.40
2023-11-12T04:31:59.250Z,0.00
2023-11-12T04:32:32.571Z,0.00
2023-11-12T04:33:04.246Z,0.00
2023-11-12T04:33:36.740Z,0.00
2023-11-12T04:34:09.194Z,9.60
2023-11-12T04:34:41.721Z,8.00
2023-11-12T04:35:14.168Z,12.81
2023-11-12T04:35:46.631Z,13.61
2023-11-12T04:36:19.142Z,8.80
2023-11-12T04:36:51.648Z,7.20
2023-11-12T04:37:24.116Z,4.80
2023-11-12T04:37:56.623Z,7.20
2023-11-12T04:38:29.105Z,4.00
2023-11-12T04:39:01.571Z,0.00
2023-11-12T04:39:34.163Z,0.00
2023-11-12T04:40:06.622Z,6.40
2023-11-12T04:40:39.088Z,7.20
2023-11-12T04:41:11.579Z,2.40
2023-11-12T04:41:44.056Z,0.00
2023-11-12T04:42:16.558Z,0.00
2023-11-12T04:42:49.083Z,0.00
2023-11-12T04:43:21.539Z,0.00
2023-11-12T04:43:54.017Z,0.00
2023-11-12T04:44:26.484Z,0.00
2023-11-12T04:44:58.980Z,8.80
2023-11-12T04:45:31.489Z,6.40
2023-11-12T04:46:04.020Z,7.20
2023-11-12T04:46:36.483Z,5.60
2023-11-12T04:47:08.886Z,4.80
2023-11-12T04:47:41.441Z,3.20
2023-11-12T04:48:14.106Z,0.00
2023-11-12T04:48:46.439Z,0.00
2023-11-12T04:49:18.877Z,0.00
2023-11-12T04:49:51.347Z,0.00
2023-11-12T04:50:23.837Z,0.00
2023-11-12T04:50:56.317Z,3.20
2023-11-12T04:51:28.859Z,3.20
2023-11-12T04:52:01.302Z,6.40
2023-11-12T04:52:33.765Z,4.00
2023-11-12T04:53:06.273Z,7.20
2023-11-12T04:53:38.760Z,4.80
2023-11-12T04:54:11.298Z,8.80
2023-11-12T04:54:43.804Z,2.40
2023-11-12T04:55:16.235Z,0.00
2023-11-12T04:55:48.722Z,0.00
2023-11-12T04:56:21.196Z,0.00
2023-11-12T04:56:53.657Z,0.00
2023-11-12T04:57:26.155Z,0.00
2023-11-12T04:57:58.589Z,8.00
2023-11-12T04:58:31.077Z,0.80
2023-11-12T04:59:03.540Z,9.60
2023-11-12T04:59:36.030Z,10.40
2023-11-12T05:00:09.815Z,4.00
2023-11-12T05:00:41.100Z,0.00
2023-11-12T05:01:13.555Z,0.00
2023-11-12T05:01:46.036Z,0.00
2023-11-12T05:02:18.477Z,8.00
2023-11-12T05:02:51.012Z,14.41
2023-11-12T05:03:23.550Z,8.00
2023-11-12T05:03:56.067Z,8.80
2023-11-12T05:04:28.541Z,8.00
2023-11-12T05:05:01.004Z,0.00
2023-11-12T05:05:33.523Z,4.80
2023-11-12T05:06:06.006Z,6.41
2023-11-12T05:06:38.495Z,9.60
2023-11-12T05:07:10.977Z,10.40
2023-11-12T05:07:43.480Z,2.40
2023-11-12T05:08:15.979Z,13.61
2023-11-12T05:08:48.475Z,8.80
2023-11-12T05:09:20.956Z,4.00
2023-11-12T05:09:53.403Z,4.00
2023-11-12T05:10:44.221Z,6.41
2023-11-12T05:10:58.376Z,16.01
2023-11-12T05:11:30.883Z,9.61
2023-11-12T05:12:03.390Z,8.00
2023-11-12T05:12:36.051Z,0.00
2023-11-12T05:13:08.400Z,0.00
2023-11-12T05:13:41.505Z,10.40
2023-11-12T05:14:14.185Z,9.60
2023-11-12T05:14:46.683Z,8.80
2023-11-12T05:15:19.138Z,4.00
2023-11-12T05:15:51.669Z,8.80
2023-11-12T05:16:24.125Z,4.80
2023-11-12T05:16:56.601Z,5.60
2023-11-12T05:17:29.125Z,11.21
2023-11-12T05:18:01.683Z,0.00
2023-11-12T05:18:34.118Z,4.80
2023-11-12T05:19:06.611Z,6.40
2023-11-12T05:19:39.073Z,8.00
2023-11-12T05:20:11.572Z,8.00
2023-11-12T05:20:44.041Z,13.61
2023-11-12T05:21:16.645Z,8.80
2023-11-12T05:21:49.135Z,6.41
2023-11-12T05:22:21.545Z,7.21
2023-11-12T05:22:54.039Z,7.20
2023-11-12T05:23:26.525Z,9.60
2023-11-12T05:23:58.973Z,6.40
2023-11-12T05:24:31.487Z,5.60
2023-11-12T05:25:03.951Z,8.80
2023-11-12T05:25:36.420Z,9.60
2023-11-12T05:26:08.909Z,6.40
2023-11-12T05:26:41.375Z,3.20
2023-11-12T05:27:13.939Z,8.80
2023-11-12T05:27:46.390Z,8.80
2023-11-12T05:28:18.839Z,8.80
2023-11-12T05:28:51.355Z,9.60
2023-11-12T05:29:23.840Z,10.40
2023-11-12T05:29:56.341Z,8.80
2023-11-12T05:30:28.907Z,8.00
2023-11-12T05:31:01.371Z,8.80
2023-11-12T05:31:33.997Z,6.40
2023-11-12T05:32:06.321Z,5.60
2023-11-12T05:32:38.860Z,5.60
2023-11-12T05:33:11.421Z,5.60
2023-11-12T05:33:43.881Z,13.61
2023-11-12T05:34:16.317Z,7.20
2023-11-12T05:34:48.794Z,0.00
2023-11-12T05:35:21.306Z,14.41
2023-11-12T05:35:53.808Z,11.21
2023-11-12T05:36:26.314Z,11.21
2023-11-12T05:36:58.769Z,10.40
2023-11-12T05:37:31.235Z,14.41
2023-11-12T05:38:03.725Z,11.21
2023-11-12T05:38:36.180Z,8.00
2023-11-12T05:39:08.655Z,0.00
2023-11-12T05:39:41.217Z,0.80
2023-11-12T05:40:13.661Z,13.61
2023-11-12T05:40:46.147Z,11.21
2023-11-12T05:41:18.603Z,8.80
2023-11-12T05:41:51.107Z,10.40
2023-11-12T05:42:23.687Z,7.20
2023-11-12T05:42:56.143Z,6.40
2023-11-12T05:43:28.671Z,12.81
2023-11-12T05:44:01.156Z,7.20
2023-11-12T05:44:33.663Z,7.20
2023-11-12T05:45:06.155Z,7.20
2023-11-12T05:45:38.694Z,3.20
2023-11-12T05:46:11.171Z,0.00
2023-11-12T05:46:43.695Z,0.00
2023-11-12T05:47:16.163Z,0.00
2023-11-12T05:47:48.728Z,0.00
2023-11-12T05:48:21.217Z,0.00
2023-11-12T05:48:53.632Z,0.00
2023-11-12T05:49:26.132Z,3.20
2023-11-12T05:49:58.652Z,0.80
2023-11-12T05:50:31.102Z,0.00
2023-11-12T05:51:03.600Z,0.00
2023-11-12T05:51:36.105Z,0.00
2023-11-12T05:52:08.569Z,0.00
2023-11-12T05:52:41.099Z,0.00
2023-11-12T05:53:13.574Z,8.80
2023-11-12T05:53:46.020Z,11.21
2023-11-12T05:54:18.534Z,7.20
2023-11-12T05:54:51.060Z,10.40
2023-11-12T05:55:23.509Z,4.80
2023-11-12T05:55:56.020Z,9.60
2023-11-12T05:56:28.525Z,7.20
2023-11-12T05:57:01.017Z,12.01
2023-11-12T05:57:33.536Z,12.01
2023-11-12T05:58:05.991Z,6.40
2023-11-12T05:58:38.501Z,8.00
2023-11-12T05:59:11.210Z,9.60
2023-11-12T05:59:43.717Z,8.80
2023-11-12T06:00:16.315Z,12.01
2023-11-12T06:00:48.769Z,11.21
2023-11-12T06:01:21.226Z,4.00
2023-11-12T06:01:53.823Z,12.81
2023-11-12T06:02:26.312Z,8.00
2023-11-12T06:02:59.324Z,8.80
2023-11-12T06:03:31.896Z,8.00
2023-11-12T06:04:04.334Z,13.61
2023-11-12T06:04:36.792Z,19.21
2023-11-12T06:05:09.255Z,12.81
2023-11-12T06:05:41.752Z,6.40
2023-11-12T06:06:14.209Z,0.00
2023-11-12T06:06:46.683Z,9.60
2023-11-12T06:07:19.138Z,8.00
2023-11-12T06:07:51.607Z,12.01
2023-11-12T06:08:24.072Z,6.40
2023-11-12T06:08:56.552Z,4.80
2023-11-12T06:09:29.124Z,5.60
2023-11-12T06:10:01.653Z,12.01
2023-11-12T06:10:34.115Z,6.40
2023-11-12T06:11:06.585Z,4.80
2023-11-12T06:11:39.141Z,3.20
2023-11-12T06:12:11.676Z,6.40
2023-11-12T06:12:44.077Z,8.00
2023-11-12T06:13:16.580Z,3.20
2023-11-12T06:13:49.077Z,4.00
2023-11-12T06:14:21.523Z,0.00
2023-11-12T06:14:53.990Z,0.00
2023-11-12T06:15:26.501Z,0.00
2023-11-12T06:15:58.981Z,8.00
2023-11-12T06:16:31.503Z,6.40
2023-11-12T06:17:04.001Z,4.80
2023-11-12T06:17:36.495Z,9.60
2023-11-12T06:18:08.924Z,4.80
2023-11-12T06:18:41.438Z,6.40
2023-11-12T06:19:13.872Z,8.00
2023-11-12T06:19:46.392Z,7.20
2023-11-12T06:20:18.873Z,7.20
2023-11-12T06:20:51.354Z,7.20
2023-11-12T06:21:23.834Z,14.41
2023-11-12T06:21:56.363Z,8.01
2023-11-12T06:22:28.810Z,10.40
2023-11-12T06:23:01.279Z,15.20
2023-11-12T06:23:33.795Z,4.80
2023-11-12T06:24:06.264Z,7.20
2023-11-12T06:24:38.818Z,9.60
2023-11-12T06:25:11.241Z,7.20
2023-11-12T06:25:43.705Z,8.80
2023-11-12T06:26:16.211Z,6.40
2023-11-12T06:26:48.688Z,8.00
2023-11-12T06:27:21.287Z,4.00
2023-11-12T06:27:53.840Z,6.40
2023-11-12T06:28:26.257Z,10.40
2023-11-12T06:28:58.715Z,7.20
2023-11-12T06:29:31.210Z,8.00
2023-11-12T06:30:03.672Z,10.40
2023-11-12T06:30:36.184Z,12.81
2023-11-12T06:31:08.616Z,6.40
2023-11-12T06:31:41.054Z,8.00
2023-11-12T06:32:13.643Z,7.20
2023-11-12T06:32:46.082Z,8.00
2023-11-12T06:33:18.544Z,7.20
2023-11-12T06:33:51.078Z,8.00
2023-11-12T06:34:23.488Z,6.41
2023-11-12T06:34:55.973Z,8.00
2023-11-12T06:35:28.465Z,7.20
2023-11-12T06:36:00.952Z,7.20
2023-11-12T06:36:33.485Z,8.00
2023-11-12T06:37:05.955Z,9.60
2023-11-12T06:37:38.449Z,10.40
2023-11-12T06:38:10.929Z,8.00
2023-11-12T06:38:43.394Z,11.21
2023-11-12T06:39:15.880Z,8.80
2023-11-12T06:39:48.359Z,4.00
2023-11-12T06:40:20.826Z,8.80
2023-11-12T06:40:53.304Z,9.60
2023-11-12T06:41:25.796Z,6.40
2023-11-12T06:41:58.282Z,4.80
2023-11-12T06:42:30.779Z,6.41
2023-11-12T06:43:03.225Z,10.40
2023-11-12T06:43:35.731Z,13.61
2023-11-12T06:44:10.274Z,8.80
2023-11-12T06:44:40.712Z,8.00
2023-11-12T06:45:13.225Z,8.00
2023-11-12T06:45:45.666Z,8.80
2023-11-12T06:46:18.136Z,9.60
2023-11-12T06:46:50.635Z,8.80
2023-11-12T06:47:23.093Z,8.80
2023-11-12T06:47:55.557Z,6.40
2023-11-12T06:48:28.083Z,8.80
2023-11-12T06:49:00.515Z,10.40
2023-11-12T06:49:33.017Z,11.21
2023-11-12T06:50:05.569Z,6.40
2023-11-12T06:50:38.084Z,6.40
2023-11-12T06:51:10.732Z,4.00
2023-11-12T06:51:43.239Z,6.40
2023-11-12T06:52:15.647Z,7.20
2023-11-12T06:52:48.142Z,4.00
2023-11-12T06:53:20.644Z,11.21
2023-11-12T06:53:53.131Z,6.40
2023-11-12T06:54:25.624Z,5.60
2023-11-12T06:54:58.041Z,4.00
2023-11-12T06:55:30.527Z,6.40
2023-11-12T06:56:04.849Z,8.00
2023-11-12T06:56:35.454Z,8.80
2023-11-12T06:57:08.249Z,8.80
2023-11-12T06:57:40.765Z,13.61
2023-11-12T06:58:13.214Z,10.40
2023-11-12T06:58:45.677Z,4.80
2023-11-12T06:59:20.236Z,6.40
2023-11-12T06:59:50.676Z,8.80
2023-11-12T07:00:23.229Z,4.80
2023-11-12T07:00:55.725Z,10.40
2023-11-12T07:01:28.216Z,8.80
2023-11-12T07:02:00.614Z,6.40
2023-11-12T07:02:33.098Z,8.00
2023-11-12T07:03:05.626Z,4.80
2023-11-12T07:03:39.449Z,8.00
2023-11-12T07:04:10.640Z,9.60
2023-11-12T07:04:43.075Z,9.60
2023-11-12T07:05:15.498Z,8.00
2023-11-12T07:05:47.979Z,8.00
2023-11-12T07:06:20.456Z,9.60
2023-11-12T07:07:05.484Z,6.40
2023-11-12T07:07:25.514Z,0.80
2023-11-12T07:07:57.906Z,0.00
2023-11-12T07:08:30.373Z,0.00
2023-11-12T07:09:02.855Z,0.80
2023-11-12T07:09:35.345Z,0.00